createdAt,value
2023-05-25T00:01:04.856Z,101889.81
2023-05-25T00:03:32.682Z,101881.16
2023-05-25T00:06:03.974Z,101872.97
2023-05-25T00:08:31.066Z,101877.72
2023-05-25T00:10:58.453Z,101886.38
2023-05-25T00:13:25.902Z,101884.34
2023-05-25T00:15:52.993Z,101887.84
2023-05-25T00:18:20.017Z,101890.38
2023-05-25T00:20:47.681Z,101894.09
2023-05-25T00:23:15.061Z,101888.72
2023-05-25T00:25:42.581Z,101884.19
2023-05-25T00:28:12.113Z,101884.19
2023-05-25T00:30:39.386Z,101883.16
2023-05-25T00:33:06.838Z,101891.38
2023-05-25T00:35:33.836Z,101880.19
2023-05-25T00:38:01.046Z,101874.16
2023-05-25T00:40:28.065Z,101873.28
2023-05-25T00:42:57.850Z,101873.22
2023-05-25T00:45:24.988Z,101887.66
2023-05-25T00:47:52.724Z,101883.88
2023-05-25T00:50:42.334Z,101885.06
2023-05-25T00:53:12.803Z,101879.41
2023-05-25T00:56:23.004Z,101887.16
2023-05-25T00:58:57.091Z,101882.56
2023-05-25T01:01:26.364Z,101874.88
2023-05-25T01:03:55.741Z,101873.53
2023-05-25T01:06:23.714Z,101872.25
2023-05-25T01:08:56.906Z,101866.25
2023-05-25T01:11:32.607Z,101861.84
2023-05-25T01:13:59.937Z,101874.59
2023-05-25T01:16:27.243Z,101863.63
2023-05-25T01:18:54.897Z,101872.50
2023-05-25T01:21:42.987Z,101876.59
2023-05-25T01:24:44.754Z,101871.47
2023-05-25T01:27:47.221Z,101870.84
2023-05-25T01:30:17.157Z,101875.88
2023-05-25T01:32:45.921Z,101880.41
2023-05-25T01:35:14.631Z,101872.59
2023-05-25T01:37:49.880Z,101881.25
2023-05-25T01:40:16.878Z,101886.84
2023-05-25T01:42:44.215Z,101878.19
2023-05-25T01:45:13.791Z,101891.63
2023-05-25T01:48:16.412Z,101878.63
2023-05-25T01:51:05.418Z,101882.78
2023-05-25T01:53:48.488Z,101887.19
2023-05-25T01:56:17.222Z,101892.56
2023-05-25T01:58:47.585Z,101882.25
2023-05-25T02:01:16.120Z,101883.97
2023-05-25T02:03:44.999Z,101883.16
2023-05-25T02:06:12.282Z,101876.34
2023-05-25T02:08:39.328Z,101873.44
2023-05-25T02:11:06.517Z,101872.47
2023-05-25T02:13:33.468Z,101866.50
2023-05-25T02:16:01.023Z,101879.94
2023-05-25T02:18:28.382Z,101873.38
2023-05-25T02:20:55.532Z,101868.44
2023-05-25T02:23:22.494Z,101872.19
2023-05-25T02:25:51.644Z,101879.63
2023-05-25T02:28:19.106Z,101881.13
2023-05-25T02:30:46.111Z,101880.28
2023-05-25T02:33:13.895Z,101881.56
2023-05-25T02:35:41.826Z,101886.78
2023-05-25T02:38:10.517Z,101881.25
2023-05-25T02:40:37.547Z,101882.69
2023-05-25T02:43:04.685Z,101885.59
2023-05-25T02:45:31.832Z,101887.09
2023-05-25T02:47:58.970Z,101895.56
2023-05-25T02:50:26.240Z,101890.25
2023-05-25T02:52:56.510Z,101882.88
2023-05-25T02:55:25.996Z,101889.50
2023-05-25T02:57:53.672Z,101886.66
2023-05-25T03:00:39.456Z,101885.66
2023-05-25T03:03:06.733Z,101899.31
2023-05-25T03:05:35.326Z,101888.41
2023-05-25T03:08:02.973Z,101889.06
2023-05-25T03:10:31.200Z,101893.16
2023-05-25T03:12:58.434Z,101894.63
2023-05-25T03:15:25.853Z,101890.91
2023-05-25T03:17:53.899Z,101890.91
2023-05-25T03:20:24.569Z,101894.41
2023-05-25T03:22:55.033Z,101892.56
2023-05-25T03:25:22.382Z,101900.38
2023-05-25T03:27:56.594Z,101893.75
2023-05-25T03:30:23.963Z,101905.31
2023-05-25T03:32:51.376Z,101898.91
2023-05-25T03:35:18.759Z,101904.88
2023-05-25T03:37:46.069Z,101892.28
2023-05-25T03:40:13.308Z,101901.97
2023-05-25T03:42:40.917Z,101897.22
2023-05-25T03:45:09.351Z,101906.25
2023-05-25T03:47:37.684Z,101902.31
2023-05-25T03:50:07.108Z,101902.91
2023-05-25T03:52:34.370Z,101902.09
2023-05-25T03:55:04.632Z,101909.06
2023-05-25T03:57:31.794Z,101904.06
2023-05-25T03:59:59.520Z,101901.16
2023-05-25T04:02:26.883Z,101916.59
2023-05-25T04:04:57.120Z,101916.56
2023-05-25T04:07:27.426Z,101910.97
2023-05-25T04:09:54.656Z,101906.59
2023-05-25T04:12:22.539Z,101907.38
2023-05-25T04:14:49.784Z,101911.03
2023-05-25T04:17:19.037Z,101922.75
2023-05-25T04:19:46.483Z,101920.00
2023-05-25T04:22:13.528Z,101922.84
2023-05-25T04:24:41.811Z,101924.63
2023-05-25T04:27:09.282Z,101931.56
2023-05-25T04:29:38.240Z,101929.69
2023-05-25T04:32:23.913Z,101925.94
2023-05-25T04:35:07.102Z,101929.53
2023-05-25T04:37:41.643Z,101923.84
2023-05-25T04:40:11.668Z,101935.13
2023-05-25T04:42:39.827Z,101940.44
2023-05-25T04:45:11.965Z,101924.69
2023-05-25T04:47:41.159Z,101936.56
2023-05-25T04:50:11.071Z,101928.75
2023-05-25T04:52:38.506Z,101933.81
2023-05-25T04:55:06.429Z,101940.53
2023-05-25T04:57:36.493Z,101932.59
2023-05-25T05:00:04.943Z,101937.66
2023-05-25T05:02:32.395Z,101930.06
2023-05-25T05:04:59.795Z,101931.16
2023-05-25T05:07:26.951Z,101922.19
2023-05-25T05:09:54.637Z,101933.03
2023-05-25T05:12:21.795Z,101921.09
2023-05-25T05:14:51.693Z,101927.78
2023-05-25T05:17:19.602Z,101926.63
2023-05-25T05:19:46.657Z,101933.06
2023-05-25T05:22:16.153Z,101930.25
2023-05-25T05:24:45.293Z,101931.31
2023-05-25T05:27:17.176Z,101924.75
2023-05-25T05:29:47.898Z,101925.69
2023-05-25T05:32:15.762Z,101932.97
2023-05-25T05:34:42.832Z,101942.09
2023-05-25T05:37:21.354Z,101946.09
2023-05-25T05:39:48.511Z,101940.94
2023-05-25T05:42:15.699Z,101945.47
2023-05-25T05:44:42.722Z,101949.69
2023-05-25T05:47:09.862Z,101940.38
2023-05-25T05:49:39.244Z,101946.00
2023-05-25T05:52:09.177Z,101954.84
2023-05-25T05:54:36.466Z,101963.44
2023-05-25T05:57:08.790Z,101955.75
2023-05-25T05:59:35.966Z,101960.28
2023-05-25T06:02:03.154Z,101964.03
2023-05-25T06:04:30.756Z,101973.13
2023-05-25T06:06:59.094Z,101971.19
2023-05-25T06:09:26.546Z,101976.50
2023-05-25T06:11:56.036Z,101964.56
2023-05-25T06:14:23.092Z,101966.06
2023-05-25T06:16:51.184Z,101964.91
2023-05-25T06:19:18.287Z,101967.78
2023-05-25T06:21:45.406Z,101964.72
2023-05-25T06:24:12.399Z,101965.16
2023-05-25T06:26:39.429Z,101966.28
2023-05-25T06:29:06.890Z,101964.28
2023-05-25T06:31:33.957Z,101965.00
2023-05-25T06:34:01.302Z,101962.41
2023-05-25T06:36:28.500Z,101971.53
2023-05-25T06:38:55.819Z,101967.88
2023-05-25T06:41:23.081Z,101971.50
2023-05-25T06:43:50.121Z,101962.13
2023-05-25T06:46:30.076Z,101967.69
2023-05-25T06:49:00.834Z,101969.16
2023-05-25T06:51:28.076Z,101967.06
2023-05-25T06:53:58.255Z,101966.34
2023-05-25T06:56:25.205Z,101967.88
2023-05-25T06:58:52.216Z,101962.22
2023-05-25T07:01:19.326Z,101966.91
2023-05-25T07:03:46.535Z,101963.22
2023-05-25T07:06:13.516Z,101965.44
2023-05-25T07:08:40.583Z,101965.00
2023-05-25T07:11:10.579Z,101978.13
2023-05-25T07:13:37.778Z,101971.44
2023-05-25T07:16:05.011Z,101954.13
2023-05-25T07:18:32.146Z,101959.97
2023-05-25T07:20:59.422Z,101960.56
2023-05-25T07:23:26.446Z,101962.03
2023-05-25T07:25:54.658Z,101961.81
2023-05-25T07:28:21.670Z,101962.16
2023-05-25T07:30:48.742Z,101963.03
2023-05-25T07:33:15.799Z,101960.91
2023-05-25T07:35:42.914Z,101965.56
2023-05-25T07:38:10.584Z,101963.94
2023-05-25T07:40:37.846Z,101960.41
2023-05-25T07:43:08.509Z,101955.78
2023-05-25T07:45:35.792Z,101962.28
2023-05-25T07:48:02.984Z,101963.53
2023-05-25T07:50:31.854Z,101959.69
2023-05-25T07:53:00.377Z,101968.00
2023-05-25T07:55:27.697Z,101966.03
2023-05-25T07:57:55.017Z,101959.75
2023-05-25T08:00:22.363Z,101952.31
2023-05-25T08:02:49.991Z,101958.50
2023-05-25T08:05:17.437Z,101957.91
2023-05-25T08:07:46.637Z,101957.25
2023-05-25T08:10:13.874Z,101968.84
2023-05-25T08:12:48.415Z,101966.91
2023-05-25T08:15:16.885Z,101959.03
2023-05-25T08:17:44.429Z,101955.59
2023-05-25T08:20:12.368Z,101952.06
2023-05-25T08:22:39.344Z,101957.66
2023-05-25T08:25:06.866Z,101953.53
2023-05-25T08:27:35.696Z,101960.59
2023-05-25T08:30:08.049Z,101963.38
2023-05-25T08:32:35.045Z,101962.50
2023-05-25T08:35:04.575Z,101948.31
2023-05-25T08:37:35.682Z,101953.59
2023-05-25T08:40:03.156Z,101953.19
2023-05-25T08:42:30.431Z,101951.63
2023-05-25T08:44:58.798Z,101949.13
2023-05-25T08:47:32.657Z,101949.03
2023-05-25T08:50:02.354Z,101939.88
2023-05-25T08:52:33.333Z,101947.41
2023-05-25T08:55:05.943Z,101947.31
2023-05-25T08:57:45.029Z,101940.94
2023-05-25T09:00:15.909Z,101932.41
2023-05-25T09:03:03.188Z,101933.19
2023-05-25T09:05:30.510Z,101939.03
2023-05-25T09:07:58.649Z,101940.66
2023-05-25T09:10:27.822Z,101944.53
2023-05-25T09:12:55.824Z,101946.22
2023-05-25T09:15:22.824Z,101949.97
2023-05-25T09:17:49.939Z,101945.13
2023-05-25T09:20:19.012Z,101948.63
2023-05-25T09:22:48.063Z,101943.09
2023-05-25T09:25:22.440Z,101942.59
2023-05-25T09:27:50.040Z,101941.31
2023-05-25T09:30:17.263Z,101936.97
2023-05-25T09:32:44.550Z,101938.44
2023-05-25T09:35:14.315Z,101939.53
2023-05-25T09:37:45.182Z,101942.34
2023-05-25T09:40:13.102Z,101938.59
2023-05-25T09:42:42.321Z,101931.75
2023-05-25T09:45:09.958Z,101937.28
2023-05-25T09:47:38.419Z,101937.25
2023-05-25T09:50:06.351Z,101946.28
2023-05-25T09:52:33.356Z,101944.31
2023-05-25T09:55:02.562Z,101938.59
2023-05-25T09:57:29.613Z,101938.69
2023-05-25T09:59:57.101Z,101937.44
2023-05-25T10:02:24.270Z,101942.84
2023-05-25T10:04:51.478Z,101944.16
2023-05-25T10:07:19.734Z,101932.09
2023-05-25T10:09:47.784Z,101929.94
2023-05-25T10:12:20.823Z,101936.06
2023-05-25T10:14:51.468Z,101930.63
2023-05-25T10:17:24.115Z,101930.09
2023-05-25T10:19:59.481Z,101926.25
2023-05-25T10:22:41.096Z,101917.28
2023-05-25T10:25:26.847Z,101920.19
2023-05-25T10:28:05.479Z,101929.56
2023-05-25T10:30:33.484Z,101934.84
2023-05-25T10:33:02.480Z,101930.44
2023-05-25T10:35:32.829Z,101928.09
2023-05-25T10:38:06.447Z,101925.09
2023-05-25T10:40:34.926Z,101921.25
2023-05-25T10:43:02.955Z,101918.81
2023-05-25T10:45:29.992Z,101912.16
2023-05-25T10:47:58.069Z,101912.66
2023-05-25T10:50:27.319Z,101914.69
2023-05-25T10:53:05.875Z,101913.94
2023-05-25T10:55:51.915Z,101910.09
2023-05-25T10:58:20.306Z,101916.81
2023-05-25T11:01:09.503Z,101912.69
2023-05-25T11:03:56.527Z,101907.91
2023-05-25T11:06:46.650Z,101899.88
2023-05-25T11:09:27.692Z,101923.97
2023-05-25T11:12:01.962Z,101918.41
2023-05-25T11:14:33.016Z,101922.34
2023-05-25T11:17:12.117Z,101914.88
2023-05-25T11:19:50.656Z,101914.28
2023-05-25T11:22:23.799Z,101904.88
2023-05-25T11:24:53.150Z,101907.25
2023-05-25T11:27:29.768Z,101901.91
2023-05-25T11:29:59.576Z,101898.06
2023-05-25T11:32:28.561Z,101908.78
2023-05-25T11:34:58.242Z,101901.25
2023-05-25T11:37:31.264Z,101907.78
2023-05-25T11:39:58.821Z,101906.22
2023-05-25T11:42:26.645Z,101901.25
2023-05-25T11:44:53.777Z,101904.03
2023-05-25T11:47:25.390Z,101888.19
2023-05-25T11:49:55.512Z,101893.34
2023-05-25T11:52:23.216Z,101903.91
2023-05-25T11:54:50.416Z,101901.69
2023-05-25T11:57:24.854Z,101891.78
2023-05-25T12:00:00.364Z,101891.72
2023-05-25T12:02:27.637Z,101895.28
2023-05-25T12:05:03.788Z,101893.16
2023-05-25T12:07:32.019Z,101905.25
2023-05-25T12:10:11.291Z,101893.00
2023-05-25T12:12:50.819Z,101889.34
2023-05-25T12:15:24.544Z,101888.94
2023-05-25T12:17:54.003Z,101878.94
2023-05-25T12:20:21.614Z,101875.81
2023-05-25T12:22:49.212Z,101882.44
2023-05-25T12:25:21.226Z,101902.47
2023-05-25T12:27:48.484Z,101889.81
2023-05-25T12:30:15.948Z,101891.16
2023-05-25T12:33:05.074Z,101891.72
2023-05-25T12:35:48.190Z,101893.03
2023-05-25T12:38:18.592Z,101897.88
2023-05-25T12:40:45.823Z,101900.28
2023-05-25T12:43:14.360Z,101893.88
2023-05-25T12:45:44.693Z,101890.69
2023-05-25T12:48:12.101Z,101896.28
2023-05-25T12:50:58.362Z,101896.19
2023-05-25T12:53:27.224Z,101909.88
2023-05-25T12:56:12.817Z,101893.50
2023-05-25T12:58:40.904Z,101912.03
2023-05-25T13:01:11.105Z,101908.31
2023-05-25T13:03:38.130Z,101911.09
2023-05-25T13:06:06.451Z,101915.72
2023-05-25T13:08:33.373Z,101918.81
2023-05-25T13:11:01.378Z,101917.78
2023-05-25T13:13:28.491Z,101913.19
2023-05-25T13:15:55.681Z,101917.03
2023-05-25T13:18:22.846Z,101910.28
2023-05-25T13:20:51.223Z,101912.56
2023-05-25T13:23:20.601Z,101920.69
2023-05-25T13:25:47.674Z,101917.63
2023-05-25T13:28:14.671Z,101917.84
2023-05-25T13:30:43.271Z,101913.09
2023-05-25T13:33:10.879Z,101909.88
2023-05-25T13:35:41.858Z,101898.16
2023-05-25T13:38:10.472Z,101895.13
2023-05-25T13:40:37.430Z,101884.06
2023-05-25T13:43:04.504Z,101883.09
2023-05-25T13:45:31.439Z,101885.28
2023-05-25T13:47:58.927Z,101885.13
2023-05-25T13:50:26.194Z,101896.22
2023-05-25T13:52:53.150Z,101885.78
2023-05-25T13:55:20.265Z,101883.16
2023-05-25T13:57:47.372Z,101884.09
2023-05-25T14:00:14.861Z,101886.72
2023-05-25T14:02:41.874Z,101875.91
2023-05-25T14:05:09.143Z,101865.59
2023-05-25T14:07:36.205Z,101879.44
2023-05-25T14:10:04.586Z,101870.03
2023-05-25T14:12:32.246Z,101865.50
2023-05-25T14:14:59.594Z,101867.84
2023-05-25T14:17:26.878Z,101856.16
2023-05-25T14:19:54.020Z,101856.94
2023-05-25T14:22:21.013Z,101859.38
2023-05-25T14:24:48.006Z,101865.53
2023-05-25T14:27:16.109Z,101864.66
2023-05-25T14:29:43.170Z,101852.91
2023-05-25T14:32:10.499Z,101854.28
2023-05-25T14:34:37.532Z,101864.25
2023-05-25T14:37:04.678Z,101864.06
2023-05-25T14:39:31.780Z,101869.66
2023-05-25T14:41:59.073Z,101870.69
2023-05-25T14:44:26.155Z,101870.50
2023-05-25T14:46:53.202Z,101870.84
2023-05-25T14:49:24.816Z,101861.78
2023-05-25T14:51:52.162Z,101870.44
2023-05-25T14:54:20.360Z,101875.72
2023-05-25T14:56:48.059Z,101874.75
2023-05-25T14:59:15.344Z,101875.50
2023-05-25T15:01:42.317Z,101875.47
2023-05-25T15:04:09.650Z,101875.72
2023-05-25T15:06:39.107Z,101878.75
2023-05-25T15:09:07.201Z,101867.50
2023-05-25T15:11:34.382Z,101866.94
2023-05-25T15:14:01.879Z,101864.66
2023-05-25T15:16:28.998Z,101854.06
2023-05-25T15:18:56.332Z,101866.00
2023-05-25T15:21:23.404Z,101865.31
2023-05-25T15:23:50.965Z,101868.41
2023-05-25T15:26:17.922Z,101861.19
2023-05-25T15:28:45.159Z,101861.81
2023-05-25T15:31:12.328Z,101873.59
2023-05-25T15:33:52.099Z,101872.81
2023-05-25T15:36:23.710Z,101871.13
2023-05-25T15:38:50.755Z,101873.56
2023-05-25T15:41:17.952Z,101872.97
2023-05-25T15:44:01.098Z,101873.50
2023-05-25T15:46:28.545Z,101874.69
2023-05-25T15:48:55.958Z,101875.53
2023-05-25T15:51:23.052Z,101869.34
2023-05-25T15:53:49.949Z,101870.78
2023-05-25T15:56:17.181Z,101872.97
2023-05-25T15:58:48.649Z,101864.47
2023-05-25T16:01:15.726Z,101867.28
2023-05-25T16:03:43.159Z,101859.63
2023-05-25T16:06:11.078Z,101859.09
2023-05-25T16:08:40.755Z,101859.16
2023-05-25T16:11:08.032Z,101855.03
2023-05-25T16:13:35.038Z,101860.47
2023-05-25T16:16:03.461Z,101859.81
2023-05-25T16:18:30.409Z,101863.13
2023-05-25T16:20:57.855Z,101858.78
2023-05-25T16:23:25.483Z,101863.03
2023-05-25T16:25:52.607Z,101868.44
2023-05-25T16:28:19.794Z,101852.91
2023-05-25T16:30:47.260Z,101859.91
2023-05-25T16:33:14.558Z,101858.94
2023-05-25T16:35:41.553Z,101855.38
2023-05-25T16:38:08.584Z,101857.47
2023-05-25T16:40:36.059Z,101860.41
2023-05-25T16:43:03.306Z,101861.00
2023-05-25T16:45:30.367Z,101856.31
2023-05-25T16:47:57.299Z,101866.47
2023-05-25T16:50:24.538Z,101861.81
2023-05-25T16:52:51.483Z,101863.53
2023-05-25T16:55:18.688Z,101862.97
2023-05-25T16:57:45.896Z,101857.19
2023-05-25T17:00:14.114Z,101860.09
2023-05-25T17:02:41.301Z,101861.31
2023-05-25T17:05:09.126Z,101856.28
2023-05-25T17:07:36.376Z,101860.53
2023-05-25T17:10:03.951Z,101857.31
2023-05-25T17:12:30.913Z,101861.00
2023-05-25T17:14:57.773Z,101863.22
2023-05-25T17:17:28.346Z,101864.88
2023-05-25T17:20:08.458Z,101854.94
2023-05-25T17:22:35.743Z,101857.09
2023-05-25T17:25:03.533Z,101869.38
2023-05-25T17:27:30.979Z,101863.38
2023-05-25T17:29:58.105Z,101862.03
2023-05-25T17:32:25.167Z,101870.13
2023-05-25T17:34:52.270Z,101876.59
2023-05-25T17:37:20.939Z,101877.75
2023-05-25T17:40:18.562Z,101869.22
2023-05-25T17:42:48.915Z,101871.28
2023-05-25T17:45:16.915Z,101879.91
2023-05-25T17:47:43.979Z,101876.75
2023-05-25T17:50:11.384Z,101881.84
2023-05-25T17:52:38.302Z,101886.63
2023-05-25T17:55:07.011Z,101893.34
2023-05-25T17:57:34.070Z,101883.66
2023-05-25T18:00:01.790Z,101893.59
2023-05-25T18:02:30.277Z,101887.16
2023-05-25T18:04:57.477Z,101895.44
2023-05-25T18:07:25.209Z,101885.78
2023-05-25T18:09:52.229Z,101892.00
2023-05-25T18:12:19.240Z,101902.19
2023-05-25T18:14:46.333Z,101903.44
2023-05-25T18:17:13.405Z,101911.19
2023-05-25T18:19:40.553Z,101905.81
2023-05-25T18:22:07.674Z,101895.56
2023-05-25T18:24:34.819Z,101907.91
2023-05-25T18:27:03.935Z,101909.38
2023-05-25T18:29:31.359Z,101907.00
2023-05-25T18:31:58.325Z,101916.09
2023-05-25T18:34:25.574Z,101917.47
2023-05-25T18:36:52.547Z,101919.44
2023-05-25T18:39:19.476Z,101934.72
2023-05-25T18:41:46.769Z,101916.81
2023-05-25T18:44:13.842Z,101926.91
2023-05-25T18:46:43.186Z,101918.53
2023-05-25T18:49:10.809Z,101912.28
2023-05-25T18:51:38.204Z,101935.41
2023-05-25T18:54:05.413Z,101933.47
2023-05-25T18:56:32.427Z,101932.13
2023-05-25T18:58:59.539Z,101935.13
2023-05-25T19:01:26.581Z,101946.81
2023-05-25T19:03:55.313Z,101956.56
2023-05-25T19:06:24.144Z,101956.00
2023-05-25T19:08:51.521Z,101955.97
2023-05-25T19:11:20.052Z,101958.91
2023-05-25T19:13:47.114Z,101952.63
2023-05-25T19:16:14.349Z,101951.78
2023-05-25T19:18:41.824Z,101949.81
2023-05-25T19:21:09.023Z,101961.75
2023-05-25T19:23:36.072Z,101965.47
2023-05-25T19:26:03.503Z,101958.34
2023-05-25T19:28:30.736Z,101956.69
2023-05-25T19:30:57.794Z,101967.78
2023-05-25T19:33:24.946Z,101964.44
2023-05-25T19:35:52.233Z,101971.97
2023-05-25T19:38:19.428Z,101975.75
2023-05-25T19:40:46.544Z,101961.78
2023-05-25T19:43:13.482Z,101976.97
2023-05-25T19:45:40.627Z,101974.44
2023-05-25T19:48:07.712Z,101964.84
2023-05-25T19:50:34.695Z,101976.22
2023-05-25T19:53:01.803Z,101972.34
2023-05-25T19:55:29.010Z,101979.31
2023-05-25T19:57:56.047Z,101973.28
2023-05-25T20:00:26.553Z,101979.44
2023-05-25T20:02:54.716Z,101984.81
2023-05-25T20:05:22.206Z,101985.78
2023-05-25T20:07:52.038Z,101997.38
2023-05-25T20:10:19.491Z,101989.72
2023-05-25T20:12:46.962Z,101988.28
2023-05-25T20:15:14.093Z,101998.19
2023-05-25T20:17:41.256Z,102006.25
2023-05-25T20:20:08.772Z,102010.28
2023-05-25T20:22:36.576Z,102005.63
2023-05-25T20:25:03.762Z,102001.22
2023-05-25T20:27:30.908Z,102001.41
2023-05-25T20:29:57.900Z,102017.09
2023-05-25T20:32:25.238Z,102014.63
2023-05-25T20:34:52.463Z,102011.88
2023-05-25T20:37:19.424Z,102017.47
2023-05-25T20:39:46.511Z,102017.94
2023-05-25T20:42:14.040Z,102019.75
2023-05-25T20:44:41.290Z,102015.84
2023-05-25T20:47:08.493Z,102024.19
2023-05-25T20:49:35.765Z,102022.16
2023-05-25T20:52:03.059Z,102015.53
2023-05-25T20:54:30.338Z,102017.09
2023-05-25T20:56:57.592Z,102017.34
2023-05-25T20:59:24.959Z,102018.56
2023-05-25T21:01:52.325Z,102021.50
2023-05-25T21:04:19.936Z,102014.38
2023-05-25T21:06:47.328Z,102018.31
2023-05-25T21:09:14.794Z,102025.38
2023-05-25T21:11:41.851Z,102021.44
2023-05-25T21:14:08.903Z,102026.75
2023-05-25T21:16:35.930Z,102023.63
2023-05-25T21:19:02.977Z,102027.63
2023-05-25T21:21:34.026Z,102025.66
2023-05-25T21:24:01.843Z,102036.38
2023-05-25T21:26:32.574Z,102038.16
2023-05-25T21:28:59.742Z,102033.72
2023-05-25T21:31:27.235Z,102029.22
2023-05-25T21:33:54.294Z,102032.41
2023-05-25T21:36:21.373Z,102041.56
2023-05-25T21:38:48.504Z,102036.53
2023-05-25T21:41:15.555Z,102041.38
2023-05-25T21:43:42.667Z,102033.38
2023-05-25T21:46:09.778Z,102029.53
2023-05-25T21:48:36.814Z,102040.09
2023-05-25T21:51:04.289Z,102029.41
2023-05-25T21:53:31.531Z,102032.03
2023-05-25T21:55:58.654Z,102036.03
2023-05-25T21:58:25.729Z,102045.19
2023-05-25T22:00:53.003Z,102051.53
2023-05-25T22:03:20.039Z,102055.88
2023-05-25T22:05:47.273Z,102056.13
2023-05-25T22:08:14.290Z,102061.75
2023-05-25T22:10:41.531Z,102059.28
2023-05-25T22:13:08.650Z,102058.13
2023-05-25T22:15:35.589Z,102058.94
2023-05-25T22:18:02.671Z,102046.75
2023-05-25T22:20:29.844Z,102075.34
2023-05-25T22:22:57.107Z,102059.88
2023-05-25T22:25:25.235Z,102063.16
2023-05-25T22:27:52.660Z,102067.72
2023-05-25T22:30:20.020Z,102068.53
2023-05-25T22:32:47.525Z,102063.97
2023-05-25T22:35:14.688Z,102071.81
2023-05-25T22:37:41.788Z,102062.31
2023-05-25T22:40:09.385Z,102054.38
2023-05-25T22:42:36.379Z,102057.28
2023-05-25T22:45:03.740Z,102065.84
2023-05-25T22:47:30.818Z,102073.38
2023-05-25T22:49:57.828Z,102072.53
2023-05-25T22:52:24.743Z,102076.28
2023-05-25T22:54:51.651Z,102076.78
2023-05-25T22:57:18.745Z,102087.56
2023-05-25T22:59:45.884Z,102072.31
2023-05-25T23:02:13.265Z,102074.19
2023-05-25T23:04:40.828Z,102074.69
2023-05-25T23:07:08.162Z,102082.19
2023-05-25T23:09:35.125Z,102092.41
2023-05-25T23:12:02.574Z,102088.53
2023-05-25T23:14:30.806Z,102094.41
2023-05-25T23:16:58.110Z,102093.47
2023-05-25T23:19:25.687Z,102095.56
2023-05-25T23:21:54.356Z,102088.66
2023-05-25T23:24:21.489Z,102087.72
2023-05-25T23:26:48.672Z,102093.81
2023-05-25T23:29:16.084Z,102091.81
2023-05-25T23:31:43.663Z,102091.47
2023-05-25T23:34:12.088Z,102088.03
2023-05-25T23:36:40.529Z,102079.00
2023-05-25T23:39:08.164Z,102075.59
2023-05-25T23:41:35.441Z,102089.06
2023-05-25T23:44:02.670Z,102091.25
2023-05-25T23:46:31.918Z,102083.25
2023-05-25T23:48:59.215Z,102081.28
2023-05-25T23:51:26.369Z,102083.00
2023-05-25T23:53:53.535Z,102091.19
2023-05-25T23:56:21.838Z,102084.03
2023-05-25T23:58:48.863Z,102084.72
